createdAt,value
2019-05-01T00:00:20.681Z,91.80
2019-05-01T00:03:09.225Z,91.40
2019-05-01T00:05:39.764Z,91.60
2019-05-01T00:08:09.322Z,91.70
2019-05-01T00:10:38.087Z,91.80
2019-05-01T00:13:07.033Z,91.90
2019-05-01T00:15:37.413Z,91.70
2019-05-01T00:18:06.214Z,91.70
2019-05-01T00:20:34.891Z,91.70
2019-05-01T00:23:03.581Z,91.90
2019-05-01T00:25:35.512Z,92.00
2019-05-01T00:28:04.854Z,92.30
2019-05-01T00:30:35.172Z,92.20
2019-05-01T00:33:03.881Z,92.30
2019-05-01T00:35:33.640Z,92.10
2019-05-01T00:38:02.292Z,91.90
2019-05-01T00:40:30.941Z,91.90
2019-05-01T00:42:59.548Z,91.80
2019-05-01T00:45:28.181Z,91.70
2019-05-01T00:47:56.826Z,91.80
2019-05-01T00:50:25.802Z,91.80
2019-05-01T00:52:54.557Z,92.00
2019-05-01T00:55:39.653Z,92.00
2019-05-01T00:58:27.430Z,92.00
2019-05-01T01:01:03.529Z,91.80
2019-05-01T01:03:32.279Z,91.80
2019-05-01T01:06:01.122Z,91.70
2019-05-01T01:08:29.829Z,91.60
2019-05-01T01:10:58.464Z,91.00
2019-05-01T01:13:27.090Z,91.40
2019-05-01T01:15:55.768Z,91.60
2019-05-01T01:18:24.564Z,92.00
2019-05-01T01:20:53.245Z,91.70
2019-05-01T01:23:22.415Z,92.00
2019-05-01T01:25:53.276Z,92.00
2019-05-01T01:28:22.739Z,92.20
2019-05-01T01:30:56.433Z,92.00
2019-05-01T01:33:21.908Z,92.10
2019-05-01T01:35:50.590Z,92.30
2019-05-01T01:38:19.227Z,92.10
2019-05-01T01:40:47.972Z,92.10
2019-05-01T01:43:35.213Z,92.20
2019-05-01T01:46:09.234Z,92.10
2019-05-01T01:48:38.081Z,91.70
2019-05-01T01:51:06.912Z,91.80
2019-05-01T01:53:35.865Z,91.70
2019-05-01T01:56:04.637Z,91.80
2019-05-01T01:58:33.591Z,91.50
2019-05-01T02:01:20.298Z,91.80
2019-05-01T02:03:50.885Z,91.90
2019-05-01T02:06:19.517Z,91.80
2019-05-01T02:08:56.326Z,91.90
2019-05-01T02:11:18.734Z,92.20
2019-05-01T02:13:47.698Z,91.80
2019-05-01T02:16:16.516Z,91.80
2019-05-01T02:18:45.215Z,91.70
2019-05-01T02:21:13.919Z,91.70
2019-05-01T02:23:42.616Z,91.70
2019-05-01T02:26:13.133Z,91.80
2019-05-01T02:28:43.668Z,91.90
2019-05-01T02:31:28.366Z,91.50
2019-05-01T02:33:53.008Z,91.50
2019-05-01T02:36:23.918Z,91.90
2019-05-01T02:38:54.413Z,92.00
2019-05-01T02:41:25.810Z,91.90
2019-05-01T02:43:56.950Z,92.00
2019-05-01T02:46:26.898Z,91.80
2019-05-01T02:49:04.402Z,91.90
2019-05-01T02:51:34.021Z,91.50
2019-05-01T02:54:03.076Z,91.40
2019-05-01T02:56:36.890Z,91.50
2019-05-01T02:59:07.454Z,91.60
2019-05-01T03:01:46.972Z,91.20
2019-05-01T03:04:10.218Z,91.50
2019-05-01T03:06:40.257Z,91.40
2019-05-01T03:09:09.059Z,91.50
2019-05-01T03:11:40.164Z,91.30
2019-05-01T03:14:11.850Z,91.40
2019-05-01T03:16:41.433Z,91.30
2019-05-01T03:19:16.623Z,91.50
2019-05-01T03:21:56.493Z,91.70
2019-05-01T03:24:31.658Z,91.80
2019-05-01T03:27:00.424Z,91.50
2019-05-01T03:29:29.167Z,91.50
2019-05-01T03:32:15.874Z,91.70
2019-05-01T03:34:28.971Z,91.80
2019-05-01T03:36:57.738Z,91.70
2019-05-01T03:39:27.270Z,91.10
2019-05-01T03:41:56.686Z,91.30
2019-05-01T03:44:25.518Z,91.40
2019-05-01T03:46:54.777Z,91.40
2019-05-01T03:49:23.622Z,91.30
2019-05-01T03:51:52.561Z,91.40
2019-05-01T03:54:21.834Z,91.30
2019-05-01T03:56:50.577Z,91.30
2019-05-01T03:59:20.129Z,91.10
2019-05-01T04:01:53.490Z,91.30
2019-05-01T04:04:23.934Z,91.20
2019-05-01T04:06:52.633Z,91.30
2019-05-01T04:09:21.743Z,91.40
2019-05-01T04:11:50.693Z,91.30
2019-05-01T04:14:19.867Z,91.10
2019-05-01T04:16:50.578Z,90.90
2019-05-01T04:19:19.542Z,90.60
2019-05-01T04:21:52.638Z,90.80
2019-05-01T04:24:21.585Z,90.80
2019-05-01T04:26:50.367Z,90.50
2019-05-01T04:29:20.813Z,90.50
2019-05-01T04:31:54.223Z,90.50
2019-05-01T04:34:42.335Z,90.60
2019-05-01T04:37:13.324Z,90.70
2019-05-01T04:39:42.163Z,90.40
2019-05-01T04:42:10.926Z,90.30
2019-05-01T04:44:40.151Z,90.30
2019-05-01T04:47:09.020Z,91.00
2019-05-01T04:49:37.725Z,90.70
2019-05-01T04:52:06.489Z,90.70
2019-05-01T04:54:35.238Z,90.70
2019-05-01T04:57:04.530Z,90.80
2019-05-01T04:59:34.283Z,91.00
2019-05-01T05:02:04.966Z,91.10
2019-05-01T05:04:34.355Z,91.00
2019-05-01T05:07:03.218Z,91.20
2019-05-01T05:09:46.504Z,91.20
2019-05-01T05:12:20.788Z,91.30
2019-05-01T05:14:54.567Z,91.40
2019-05-01T05:17:24.125Z,91.60
2019-05-01T05:19:53.227Z,91.50
2019-05-01T05:22:23.178Z,91.60
2019-05-01T05:24:53.642Z,91.40
2019-05-01T05:27:24.955Z,91.40
2019-05-01T05:29:58.008Z,91.80
2019-05-01T05:32:28.807Z,91.70
2019-05-01T05:34:59.531Z,91.50
2019-05-01T05:37:34.516Z,91.70
2019-05-01T05:40:05.325Z,91.50
2019-05-01T05:42:34.476Z,91.80
2019-05-01T05:45:04.222Z,91.80
2019-05-01T05:47:34.051Z,91.80
2019-05-01T05:50:03.492Z,91.60
2019-05-01T05:52:37.456Z,91.50
2019-05-01T05:55:10.689Z,91.40
2019-05-01T05:57:44.017Z,91.50
2019-05-01T06:00:31.190Z,91.30
2019-05-01T06:03:04.499Z,91.40
2019-05-01T06:05:55.186Z,91.30
2019-05-01T06:08:27.779Z,90.80
2019-05-01T06:11:16.062Z,91.10
2019-05-01T06:13:57.096Z,91.10
2019-05-01T06:16:28.654Z,91.10
2019-05-01T06:19:01.870Z,91.00
2019-05-01T06:21:35.959Z,91.00
2019-05-01T06:24:09.257Z,91.10
2019-05-01T06:26:39.536Z,90.80
2019-05-01T06:29:08.439Z,91.10
2019-05-01T06:31:37.618Z,90.90
2019-05-01T06:34:06.391Z,90.70
2019-05-01T06:36:35.318Z,90.40
2019-05-01T06:39:06.795Z,90.80
2019-05-01T06:41:42.626Z,90.40
2019-05-01T06:44:11.658Z,90.50
2019-05-01T06:47:03.655Z,90.40
2019-05-01T06:49:33.992Z,90.20
2019-05-01T06:52:05.285Z,90.50
2019-05-01T06:54:35.429Z,90.40
2019-05-01T06:57:05.342Z,90.00
2019-05-01T06:59:35.490Z,90.20
2019-05-01T07:02:04.526Z,89.40
2019-05-01T07:04:37.945Z,89.60
2019-05-01T07:07:06.802Z,89.10
2019-05-01T07:09:37.214Z,89.40
2019-05-01T07:12:08.327Z,88.70
2019-05-01T07:14:37.681Z,88.90
2019-05-01T07:17:09.022Z,88.80
2019-05-01T07:19:54.214Z,88.70
2019-05-01T07:22:23.164Z,89.40
2019-05-01T07:24:53.044Z,89.40
2019-05-01T07:27:23.918Z,89.80
2019-05-01T07:29:53.955Z,90.20
2019-05-01T07:32:23.128Z,89.70
2019-05-01T07:34:51.972Z,89.90
2019-05-01T07:37:25.880Z,89.60
2019-05-01T07:39:51.862Z,89.10
2019-05-01T07:42:26.979Z,88.90
2019-05-01T07:45:03.879Z,88.20
2019-05-01T07:47:50.068Z,88.00
2019-05-01T07:50:19.324Z,87.80
2019-05-01T07:52:52.330Z,87.20
2019-05-01T07:55:37.405Z,87.30
2019-05-01T07:58:10.334Z,86.30
2019-05-01T08:01:04.561Z,87.80
2019-05-01T08:03:33.536Z,86.50
2019-05-01T08:06:02.291Z,86.80
2019-05-01T08:08:31.973Z,87.40
2019-05-01T08:11:05.292Z,87.40
2019-05-01T08:13:35.081Z,87.10
2019-05-01T08:16:02.113Z,86.10
2019-05-01T08:18:36.104Z,86.60
2019-05-01T08:21:21.051Z,86.40
2019-05-01T08:23:50.750Z,86.10
2019-05-01T08:26:19.361Z,86.10
2019-05-01T08:29:08.158Z,86.50
2019-05-01T08:31:47.872Z,86.10
2019-05-01T08:34:30.387Z,85.90
2019-05-01T08:36:59.141Z,85.30
2019-05-01T08:39:27.890Z,85.90
2019-05-01T08:41:56.515Z,87.20
2019-05-01T08:44:29.635Z,86.80
2019-05-01T08:47:01.443Z,86.20
2019-05-01T08:49:49.887Z,86.20
2019-05-01T08:52:17.540Z,85.50
2019-05-01T08:54:46.241Z,84.80
2019-05-01T08:57:15.027Z,83.90
2019-05-01T08:59:43.651Z,85.10
2019-05-01T09:02:12.311Z,84.50
2019-05-01T09:04:40.988Z,82.20
2019-05-01T09:07:09.682Z,81.80
2019-05-01T09:09:39.689Z,82.90
2019-05-01T09:12:11.842Z,84.70
2019-05-01T09:14:38.927Z,85.00
2019-05-01T09:19:35.968Z,85.50
2019-05-01T09:22:04.737Z,84.90
2019-05-01T09:24:33.536Z,83.60
2019-05-01T09:27:18.559Z,80.80
2019-05-01T09:29:51.658Z,81.70
2019-05-01T09:32:18.832Z,83.70
2019-05-01T09:34:47.653Z,83.00
2019-05-01T09:37:16.514Z,81.70
2019-05-01T09:39:47.348Z,83.30
2019-05-01T09:42:22.917Z,83.70
2019-05-01T09:44:46.483Z,83.30
2019-05-01T09:47:15.249Z,82.00
2019-05-01T09:49:43.994Z,82.30
2019-05-01T09:52:30.454Z,83.60
2019-05-01T09:55:09.705Z,83.70
2019-05-01T09:57:41.473Z,84.70
2019-05-01T10:00:10.755Z,83.90
2019-05-01T10:02:42.141Z,84.10
2019-05-01T10:05:09.708Z,83.10
2019-05-01T10:07:41.377Z,81.50
2019-05-01T10:10:10.254Z,81.70
2019-05-01T10:12:41.793Z,83.00
2019-05-01T10:15:09.354Z,82.30
2019-05-01T10:17:38.914Z,82.80
2019-05-01T12:32:09.337Z,81.90
2019-05-01T12:34:37.994Z,81.40
2019-05-01T12:37:17.343Z,82.60
2019-05-01T12:40:06.393Z,82.50
2019-05-01T12:42:35.620Z,82.40
2019-05-01T12:45:06.671Z,82.00
2019-05-01T12:47:38.144Z,80.50
2019-05-01T12:50:10.474Z,78.40
2019-05-01T12:52:46.639Z,79.30
2019-05-01T12:55:20.276Z,80.00
2019-05-01T12:57:48.896Z,80.30
2019-05-01T13:00:19.827Z,80.10
2019-05-01T13:02:48.618Z,80.20
2019-05-01T13:05:17.297Z,79.30
2019-05-01T13:07:47.021Z,79.30
2019-05-01T13:10:15.878Z,80.20
2019-05-01T13:12:44.581Z,80.30
2019-05-01T13:15:13.397Z,80.70
2019-05-01T13:17:42.101Z,81.20
2019-05-01T13:20:10.899Z,81.40
2019-05-01T13:22:39.539Z,80.70
2019-05-01T13:25:08.297Z,81.90
2019-05-01T13:27:42.132Z,82.00
2019-05-01T13:30:23.499Z,81.90
2019-05-01T13:32:56.368Z,82.10
2019-05-01T13:35:25.120Z,82.70
2019-05-01T13:37:54.792Z,82.40
2019-05-01T13:40:23.540Z,82.70
2019-05-01T13:42:52.249Z,82.40
2019-05-01T13:45:21.098Z,82.80
2019-05-01T13:47:49.748Z,82.60
2019-05-01T13:50:18.497Z,81.00
2019-05-01T13:52:47.320Z,81.90
2019-05-01T13:55:16.373Z,79.70
2019-05-01T13:57:45.272Z,80.80
2019-05-01T14:00:15.001Z,79.80
2019-05-01T14:02:43.613Z,78.20
2019-05-01T14:05:12.502Z,78.70
2019-05-01T14:07:42.223Z,78.30
2019-05-01T14:10:11.191Z,79.10
2019-05-01T14:12:39.872Z,79.90
2019-05-01T14:15:08.764Z,78.20
2019-05-01T14:17:37.392Z,79.90
2019-05-01T14:20:08.717Z,79.10
2019-05-01T14:22:39.000Z,79.80
2019-05-01T14:25:09.693Z,79.50
2019-05-01T14:27:38.329Z,78.70
2019-05-01T14:30:09.370Z,79.50
2019-05-01T14:32:39.308Z,79.20
2019-05-01T14:35:08.916Z,78.80
2019-05-01T14:37:37.889Z,80.40
2019-05-01T14:40:07.352Z,81.10
2019-05-01T14:42:36.291Z,77.70
2019-05-01T14:45:08.022Z,78.40
2019-05-01T14:47:36.793Z,79.20
2019-05-01T14:50:07.054Z,78.80
2019-05-01T14:52:37.136Z,79.80
2019-05-01T14:55:07.350Z,77.90
2019-05-01T14:57:36.019Z,78.40
2019-05-01T15:00:06.501Z,78.70
2019-05-01T15:02:35.378Z,79.10
2019-05-01T15:05:07.642Z,77.90
2019-05-01T15:07:43.391Z,78.00
2019-05-01T15:10:07.182Z,77.80
2019-05-01T15:12:35.952Z,78.50
2019-05-01T15:15:24.247Z,78.50
2019-05-01T15:18:10.883Z,79.10
2019-05-01T15:20:39.564Z,79.50
2019-05-01T15:23:08.215Z,79.30
2019-05-01T15:25:36.903Z,79.50
2019-05-01T15:28:05.707Z,80.20
2019-05-01T15:30:34.385Z,80.20
2019-05-01T15:33:03.091Z,81.50
2019-05-01T15:35:31.703Z,81.10
2019-05-01T15:38:00.409Z,81.50
2019-05-01T15:40:33.431Z,81.00
2019-05-01T15:43:03.782Z,81.60
2019-05-01T15:45:32.478Z,80.90
2019-05-01T15:48:01.169Z,80.90
2019-05-01T15:50:29.909Z,79.70
2019-05-01T15:52:58.520Z,81.00
2019-05-01T15:55:27.176Z,80.40
2019-05-01T15:57:55.878Z,81.10
2019-05-01T16:00:24.569Z,81.30
2019-05-01T16:02:53.256Z,81.60
2019-05-01T16:05:21.966Z,81.60
2019-05-01T16:07:51.531Z,81.30
2019-05-01T16:10:21.957Z,79.90
2019-05-01T16:12:52.226Z,79.70
2019-05-01T17:32:55.291Z,79.40
2019-05-01T17:35:23.925Z,82.50
2019-05-01T17:37:53.642Z,82.10
2019-05-01T17:40:22.370Z,82.90
2019-05-01T17:42:50.985Z,83.00
2019-05-01T17:45:19.669Z,82.90
2019-05-01T17:47:48.298Z,83.00
2019-05-01T17:50:21.127Z,82.70
2019-05-01T17:52:47.405Z,82.70
2019-05-01T17:55:16.224Z,82.60
2019-05-01T17:57:44.969Z,82.40
2019-05-01T18:00:30.621Z,82.90
2019-05-01T18:03:19.487Z,82.10
2019-05-01T18:06:00.765Z,81.60
2019-05-01T18:08:26.489Z,81.80
2019-05-01T18:13:23.434Z,81.80
2019-05-01T18:15:52.037Z,81.50
2019-05-01T18:18:20.830Z,81.60
2019-05-01T18:20:49.684Z,81.80
2019-05-01T18:23:36.193Z,81.70
2019-05-01T18:26:23.862Z,81.90
2019-05-01T18:28:54.363Z,82.10
2019-05-01T18:31:28.013Z,82.00
2019-05-01T18:33:57.102Z,81.70
2019-05-01T18:36:27.082Z,82.20
2019-05-01T18:38:59.758Z,81.90
2019-05-01T18:48:56.842Z,82.40
2019-05-01T18:51:25.859Z,83.90
2019-05-01T18:53:57.375Z,82.30
2019-05-01T18:56:25.185Z,82.40
2019-05-01T18:58:54.059Z,83.20
2019-05-01T19:01:22.959Z,83.50
2019-05-01T19:03:51.775Z,83.70
2019-05-01T19:06:20.766Z,83.80
2019-05-01T19:08:49.743Z,83.90
2019-05-01T19:11:20.541Z,84.10
2019-05-01T19:13:49.641Z,83.40
2019-05-01T19:16:19.483Z,83.80
2019-05-01T19:18:48.274Z,82.60
2019-05-01T19:21:19.102Z,82.70
2019-05-01T19:23:48.065Z,82.80
2019-05-01T19:26:18.614Z,82.30
2019-05-01T19:28:47.442Z,82.60
2019-05-01T19:31:16.327Z,82.30
2019-05-01T19:48:39.116Z,82.30
2019-05-01T19:51:07.983Z,82.60
2019-05-01T19:53:36.664Z,84.50
2019-05-01T19:56:06.472Z,84.60
2019-05-01T19:58:35.225Z,85.30
2019-05-01T20:01:04.962Z,86.20
2019-05-01T20:03:36.416Z,86.60
2019-05-01T20:06:06.010Z,86.40
2019-05-01T20:08:34.918Z,87.10
2019-05-01T20:11:03.700Z,87.10
2019-05-01T20:13:32.596Z,86.40
2019-05-01T20:16:01.489Z,86.60
2019-05-01T20:18:30.176Z,86.70
2019-05-01T20:20:58.858Z,86.00
2019-05-01T20:23:31.355Z,86.00
2019-05-01T20:25:57.883Z,86.20
2019-05-01T20:28:28.328Z,86.20
2019-05-01T20:30:56.949Z,86.10
2019-05-01T20:33:25.759Z,86.20
2019-05-01T20:35:54.505Z,86.40
2019-05-01T20:38:23.118Z,86.20
2019-05-01T20:40:51.745Z,84.90
2019-05-01T20:43:20.451Z,84.80
2019-05-01T20:45:51.141Z,85.00
2019-05-01T20:48:23.646Z,84.90
2019-05-01T20:50:49.693Z,85.30
2019-05-01T20:53:18.300Z,85.70
2019-05-01T20:55:48.571Z,85.70
2019-05-01T20:58:18.325Z,85.90
2019-05-01T21:00:53.573Z,84.60
2019-05-01T21:03:19.667Z,84.90
2019-05-01T21:05:53.150Z,85.40
2019-05-01T21:08:39.245Z,84.60
2019-05-01T21:11:12.921Z,84.80
2019-05-01T21:13:41.291Z,84.80
2019-05-01T21:16:09.987Z,84.80
2019-05-01T21:18:38.605Z,84.60
2019-05-01T21:21:07.239Z,84.30
2019-05-01T21:23:35.974Z,84.40
2019-05-01T21:26:04.750Z,85.00
2019-05-01T21:28:34.083Z,84.90
2019-05-01T21:31:03.897Z,85.20
2019-05-01T21:33:33.988Z,85.80
2019-05-01T21:36:22.250Z,86.10
2019-05-01T21:38:50.912Z,86.00
2019-05-01T21:41:19.549Z,86.50
2019-05-01T21:43:48.227Z,86.80
2019-05-01T21:46:16.889Z,87.50
2019-05-01T21:48:45.574Z,87.10
2019-05-01T21:51:14.278Z,87.40
2019-05-01T21:53:46.320Z,87.60
2019-05-01T21:56:13.269Z,87.40
2019-05-01T21:58:41.986Z,87.80
2019-05-01T22:01:10.752Z,88.10
2019-05-01T22:03:39.458Z,88.50
2019-05-01T22:06:11.249Z,89.00
2019-05-01T22:08:39.134Z,88.80
2019-05-01T22:11:09.307Z,88.80
2019-05-01T22:13:37.948Z,88.60
2019-05-01T22:16:08.265Z,89.10
2019-05-01T22:18:38.681Z,89.30
2019-05-01T22:21:11.782Z,89.50
2019-05-01T22:23:58.678Z,89.80
2019-05-01T22:26:29.022Z,90.10
2019-05-01T22:28:59.449Z,89.90
2019-05-01T22:31:44.596Z,90.10
2019-05-01T22:34:30.957Z,90.10
2019-05-01T22:36:59.720Z,90.50
2019-05-01T22:39:30.129Z,90.50
2019-05-01T22:41:59.081Z,90.70
2019-05-01T22:44:27.762Z,90.50
2019-05-01T22:46:56.445Z,90.70
2019-05-01T22:49:25.241Z,90.60
2019-05-01T22:51:53.854Z,90.70
2019-05-01T22:54:22.480Z,90.80
2019-05-01T22:56:51.223Z,90.60
2019-05-01T22:59:19.973Z,90.80
2019-05-01T23:01:53.013Z,90.70
2019-05-01T23:04:20.651Z,90.70
2019-05-01T23:06:49.533Z,90.70
2019-05-01T23:09:23.445Z,90.80
2019-05-01T23:11:50.441Z,90.70
2019-05-01T23:14:19.684Z,90.70
2019-05-01T23:17:03.295Z,91.00
2019-05-01T23:19:29.636Z,90.60
2019-05-01T23:21:58.479Z,90.60
2019-05-01T23:24:27.271Z,90.50
2019-05-01T23:26:55.967Z,90.60
2019-05-01T23:29:24.727Z,90.50
2019-05-01T23:31:53.355Z,90.40
2019-05-01T23:34:26.229Z,90.40
2019-05-01T23:36:52.386Z,90.20
2019-05-01T23:39:20.989Z,90.20
2019-05-01T23:41:49.783Z,90.10
2019-05-01T23:44:18.467Z,90.10
2019-05-01T23:46:47.439Z,90.30
2019-05-01T23:49:16.089Z,90.30
2019-05-01T23:51:44.703Z,90.20
2019-05-01T23:54:13.324Z,90.10
2019-05-01T23:56:42.044Z,90.10
2019-05-01T23:59:10.740Z,89.90
